Time;durP1;ratioP1;P1;durP2;ratioP2;P2;SDS_P1;SDS_P2;PMS_P1;PMS_P2;Temp;Humidity;BMP_temperature;BMP_pressure;BME280_temperature;BME280_humidity;BME280_pressure;Samples;Min_cycle;Max_cycle;Signal;HPM_P1;HPM_P2
2021/10/03 00:00:57;;;;;;;7.72;3.40;;;15.70;95.00;;;;;;5071610;28;20017;-63
2021/10/03 00:03:24;;;;;;;8.57;3.50;;;15.60;95.00;;;;;;5071450;28;20028;-63
2021/10/03 00:05:52;;;;;;;8.55;3.10;;;15.60;95.10;;;;;;5071380;28;20024;-63
2021/10/03 00:08:19;;;;;;;11.57;3.90;;;15.70;95.00;;;;;;5069805;28;20034;-64
2021/10/03 00:10:44;;;;;;;10.18;3.55;;;15.70;95.10;;;;;;5071569;28;20024;-63
2021/10/03 00:13:10;;;;;;;9.15;3.67;;;15.70;95.10;;;;;;5071473;28;20028;-63
2021/10/03 00:15:38;;;;;;;8.35;3.65;;;15.70;95.10;;;;;;5071109;28;20059;-63
2021/10/03 00:18:06;;;;;;;10.95;3.58;;;15.70;95.10;;;;;;5071387;28;20020;-63
2021/10/03 00:20:32;;;;;;;9.38;3.17;;;15.70;95.10;;;;;;5070891;28;20021;-63
2021/10/03 00:22:57;;;;;;;9.32;3.70;;;15.70;95.00;;;;;;5071144;28;20576;-63
2021/10/03 00:25:25;;;;;;;9.88;3.50;;;15.70;95.10;;;;;;5070740;28;20040;-63
2021/10/03 00:27:53;;;;;;;10.25;3.97;;;15.70;95.10;;;;;;5071275;28;20503;-63
2021/10/03 00:30:21;;;;;;;8.32;3.53;;;15.70;95.10;;;;;;5070768;28;20391;-63
2021/10/03 00:32:47;;;;;;;7.60;3.58;;;15.70;95.10;;;;;;5071420;28;20402;-63
2021/10/03 00:35:13;;;;;;;7.22;3.53;;;15.70;95.10;;;;;;5070706;28;20039;-63
2021/10/03 00:37:39;;;;;;;8.73;3.53;;;15.70;95.10;;;;;;5071092;28;20040;-63
2021/10/03 00:40:06;;;;;;;5.93;3.30;;;15.70;95.20;;;;;;5070849;28;20031;-63
2021/10/03 00:42:32;;;;;;;8.40;3.53;;;15.70;95.10;;;;;;5071089;28;20514;-63
2021/10/03 00:44:57;;;;;;;6.28;3.22;;;15.70;94.90;;;;;;5070860;28;20041;-63
2021/10/03 00:47:23;;;;;;;8.32;3.72;;;15.70;95.00;;;;;;5070937;28;20023;-64
2021/10/03 00:49:49;;;;;;;7.32;3.50;;;15.70;95.00;;;;;;5070399;28;20021;-64
2021/10/03 00:52:15;;;;;;;9.82;4.07;;;15.70;94.90;;;;;;5070789;28;20487;-63
2021/10/03 00:54:40;;;;;;;6.45;3.28;;;15.70;94.90;;;;;;5071183;28;20491;-63
2021/10/03 00:57:06;;;;;;;6.35;3.25;;;15.70;94.80;;;;;;5069505;28;20403;-63
2021/10/03 00:59:33;;;;;;;8.25;3.03;;;15.70;94.90;;;;;;5070501;28;20479;-62
2021/10/03 01:01:59;;;;;;;6.45;3.35;;;15.70;94.90;;;;;;5070673;28;20028;-63
2021/10/03 01:04:25;;;;;;;6.78;3.30;;;15.70;94.90;;;;;;5070839;28;20195;-62
2021/10/03 01:06:51;;;;;;;8.30;3.55;;;15.70;94.90;;;;;;5070624;28;20108;-62
2021/10/03 01:09:21;;;;;;;7.25;3.63;;;15.70;94.90;;;;;;5070501;28;20506;-62
2021/10/03 01:11:47;;;;;;;9.27;3.80;;;15.70;95.00;;;;;;5070862;28;20021;-62
2021/10/03 01:14:13;;;;;;;6.90;3.33;;;15.70;95.00;;;;;;5070421;28;20036;-62
2021/10/03 01:16:40;;;;;;;7.53;3.53;;;15.70;95.00;;;;;;5070570;28;20055;-63
2021/10/03 01:19:07;;;;;;;5.90;3.50;;;15.70;95.00;;;;;;5070329;28;20028;-63
2021/10/03 01:21:33;;;;;;;6.72;3.28;;;15.70;94.90;;;;;;5070528;28;20070;-62
2021/10/03 01:23:59;;;;;;;6.30;3.20;;;15.70;95.00;;;;;;5070607;28;20028;-63
2021/10/03 01:26:27;;;;;;;7.03;3.47;;;15.70;95.10;;;;;;5070687;28;20025;-62
2021/10/03 01:28:53;;;;;;;6.50;3.58;;;15.70;95.00;;;;;;5070092;28;20575;-62
2021/10/03 01:31:25;;;;;;;8.98;3.58;;;15.70;95.00;;;;;;5070551;28;20670;-62
2021/10/03 01:33:52;;;;;;;8.88;3.15;;;15.80;95.00;;;;;;5070629;28;20031;-62
2021/10/03 01:38:48;;;;;;;7.97;3.40;;;15.80;95.10;;;;;;5030946;28;20045;-62
2021/10/03 01:41:14;;;;;;;8.63;3.38;;;15.70;95.10;;;;;;5030443;28;20025;-62
2021/10/03 01:43:40;;;;;;;8.25;3.30;;;15.70;95.10;;;;;;5031747;28;20064;-62
2021/10/03 01:46:06;;;;;;;7.47;3.72;;;15.80;95.00;;;;;;5014270;28;20160;-63
2021/10/03 01:48:33;;;;;;;7.93;3.45;;;15.70;95.10;;;;;;5027116;28;20120;-62
2021/10/03 01:51:02;;;;;;;6.05;3.45;;;15.70;95.10;;;;;;5032310;28;20033;-63
2021/10/03 01:53:34;;;;;;;6.85;3.25;;;15.70;95.00;;;;;;5034049;28;20467;-62
2021/10/03 01:56:01;;;;;;;6.10;3.08;;;15.70;95.00;;;;;;5034155;28;20024;-61
2021/10/03 01:58:32;;;;;;;6.55;3.33;;;15.80;94.80;;;;;;5033554;28;20041;-62
2021/10/03 02:01:02;;;;;;;8.05;3.50;;;15.80;95.00;;;;;;5032910;28;20025;-62
2021/10/03 02:03:27;;;;;;;6.80;3.10;;;15.70;94.90;;;;;;5033654;28;20441;-62
2021/10/03 02:05:53;;;;;;;7.55;3.35;;;15.80;95.00;;;;;;5033870;28;20100;-63
2021/10/03 02:08:18;;;;;;;7.70;3.05;;;15.80;95.00;;;;;;5033587;28;20026;-62
2021/10/03 02:10:47;;;;;;;7.88;3.30;;;15.80;95.00;;;;;;5033956;28;20096;-62
2021/10/03 02:13:13;;;;;;;8.52;3.20;;;15.80;95.00;;;;;;5033656;28;20469;-63
2021/10/03 02:15:42;;;;;;;8.50;3.30;;;15.80;95.00;;;;;;5033691;28;20030;-62
2021/10/03 02:18:10;;;;;;;9.98;3.55;;;15.70;95.00;;;;;;5033591;28;20504;-62
2021/10/03 02:20:36;;;;;;;7.75;3.20;;;15.80;94.90;;;;;;5031969;28;20021;-63
2021/10/03 02:23:05;;;;;;;6.47;3.15;;;15.80;94.80;;;;;;5033760;28;20013;-62
2021/10/03 02:25:31;;;;;;;6.07;3.05;;;15.80;95.00;;;;;;5033683;28;20544;-62
2021/10/03 02:27:57;;;;;;;8.73;3.20;;;15.80;94.90;;;;;;5033424;28;20037;-62
2021/10/03 02:30:23;;;;;;;6.10;3.00;;;15.80;94.80;;;;;;5033164;28;20057;-62
2021/10/03 02:32:49;;;;;;;8.32;2.97;;;15.80;94.90;;;;;;5031646;28;20057;-61
2021/10/03 02:35:15;;;;;;;6.50;3.38;;;15.80;94.80;;;;;;5013380;28;20037;-64
2021/10/03 02:37:42;;;;;;;6.68;3.13;;;15.80;94.90;;;;;;5013547;28;20552;-63
2021/10/03 02:40:11;;;;;;;5.85;2.83;;;15.80;94.90;;;;;;5011945;28;20025;-63
2021/10/03 02:42:38;;;;;;;6.07;3.00;;;15.80;94.90;;;;;;5013514;28;20018;-63
2021/10/03 02:45:06;;;;;;;6.07;3.28;;;15.80;94.80;;;;;;5016373;28;20037;-63
2021/10/03 02:47:32;;;;;;;8.57;3.30;;;15.80;95.00;;;;;;5026710;28;20022;-63
2021/10/03 02:49:58;;;;;;;5.93;3.03;;;15.80;94.80;;;;;;5032503;28;20033;-63
2021/10/03 02:52:23;;;;;;;6.97;3.20;;;15.80;94.80;;;;;;5033019;28;20079;-63
2021/10/03 02:54:49;;;;;;;6.22;3.00;;;15.80;94.70;;;;;;5032975;28;20033;-62
2021/10/03 02:57:15;;;;;;;330.27;20.98;;;15.80;94.70;;;;;;5031476;28;20476;-62
2021/10/03 02:59:41;;;;;;;11.60;3.28;;;15.80;94.60;;;;;;5032825;28;20025;-65
2021/10/03 03:02:06;;;;;;;25.00;4.25;;;15.80;94.40;;;;;;5032707;28;20527;-62
2021/10/03 03:04:32;;;;;;;27.95;4.07;;;15.80;94.50;;;;;;5031537;28;20642;-63
2021/10/03 03:06:58;;;;;;;15.43;3.00;;;15.80;94.70;;;;;;5032799;28;20392;-62
2021/10/03 03:09:24;;;;;;;16.73;3.25;;;15.80;94.50;;;;;;5032505;28;20043;-62
2021/10/03 03:11:49;;;;;;;12.55;3.15;;;15.90;94.60;;;;;;5031462;28;20052;-63
2021/10/03 03:14:15;;;;;;;12.68;3.22;;;15.80;94.50;;;;;;5032599;28;20021;-63
2021/10/03 03:16:43;;;;;;;13.10;3.25;;;15.80;94.50;;;;;;5032570;28;20079;-64
2021/10/03 03:19:08;;;;;;;9.05;2.92;;;15.80;94.50;;;;;;5032175;28;20025;-63
2021/10/03 03:21:34;;;;;;;13.98;3.42;;;15.80;94.50;;;;;;5032647;28;20028;-63
2021/10/03 03:23:59;;;;;;;7.60;3.13;;;15.80;94.40;;;;;;5032498;28;20586;-62
2021/10/03 03:26:25;;;;;;;6.80;2.97;;;15.80;94.60;;;;;;5032358;28;20100;-62
2021/10/03 03:28:50;;;;;;;6.80;3.10;;;15.80;94.60;;;;;;5032124;28;20404;-63
2021/10/03 03:31:16;;;;;;;7.18;2.70;;;15.90;94.50;;;;;;5032256;28;20500;-62
2021/10/03 03:33:42;;;;;;;6.40;2.72;;;15.80;94.60;;;;;;5032029;28;20402;-62
2021/10/03 03:36:07;;;;;;;6.65;3.17;;;15.80;94.50;;;;;;5032187;28;20498;-62
2021/10/03 03:38:35;;;;;;;7.93;3.22;;;15.80;94.60;;;;;;5031942;28;20033;-63
2021/10/03 03:41:02;;;;;;;6.18;3.38;;;15.90;94.40;;;;;;5032054;28;20047;-63
2021/10/03 03:43:28;;;;;;;7.00;3.20;;;15.80;94.50;;;;;;5032234;28;20028;-63
2021/10/03 03:45:53;;;;;;;6.38;3.20;;;15.90;94.70;;;;;;5030615;28;20022;-64
2021/10/03 03:48:19;;;;;;;9.00;2.95;;;15.80;94.60;;;;;;5031607;28;20045;-62
2021/10/03 03:50:44;;;;;;;6.35;2.67;;;15.80;94.60;;;;;;5031928;28;20387;-61
2021/10/03 03:53:10;;;;;;;9.18;2.72;;;15.80;94.50;;;;;;5031999;28;20029;-62
2021/10/03 03:55:35;;;;;;;6.22;2.88;;;15.90;94.20;;;;;;5030527;28;20543;-60
2021/10/03 03:58:01;;;;;;;8.52;3.22;;;15.90;94.40;;;;;;5031652;28;20581;-63
2021/10/03 04:00:26;;;;;;;5.63;2.88;;;15.80;94.30;;;;;;5030857;28;20431;-62
2021/10/03 04:02:52;;;;;;;7.45;3.00;;;15.90;94.40;;;;;;5030298;28;20450;-63
2021/10/03 04:05:18;;;;;;;6.85;3.03;;;15.90;94.50;;;;;;5031822;28;20052;-62
2021/10/03 04:07:43;;;;;;;6.13;2.72;;;15.90;94.50;;;;;;5031673;28;20040;-62
2021/10/03 04:10:09;;;;;;;7.65;3.13;;;15.90;94.60;;;;;;5031567;28;20040;-62
2021/10/03 04:12:35;;;;;;;6.45;3.40;;;15.90;94.60;;;;;;5031424;28;20026;-63
2021/10/03 04:15:00;;;;;;;6.65;2.90;;;15.90;94.70;;;;;;5031551;28;20442;-62
2021/10/03 04:17:26;;;;;;;4.85;2.80;;;15.90;94.70;;;;;;5031444;28;20096;-63
2021/10/03 04:19:51;;;;;;;5.65;3.03;;;15.80;94.70;;;;;;5030985;28;20027;-62
2021/10/03 04:22:17;;;;;;;6.20;2.97;;;15.90;94.70;;;;;;5031308;28;20021;-63
2021/10/03 04:24:43;;;;;;;6.93;3.15;;;15.80;94.80;;;;;;5031356;28;20515;-62
2021/10/03 04:27:08;;;;;;;6.63;3.47;;;15.90;94.70;;;;;;5031218;28;20511;-62
2021/10/03 04:29:34;;;;;;;6.65;3.38;;;15.80;94.70;;;;;;5030837;28;20029;-62
2021/10/03 04:31:59;;;;;;;5.45;3.22;;;15.90;94.70;;;;;;5031371;28;20025;-62
2021/10/03 04:34:25;;;;;;;5.35;3.20;;;15.90;94.90;;;;;;5016055;28;20061;-62
2021/10/03 04:36:51;;;;;;;6.80;3.42;;;15.90;94.90;;;;;;5011396;28;20056;-62
2021/10/03 04:39:17;;;;;;;5.93;3.20;;;15.90;94.90;;;;;;5011274;28;20022;-62
2021/10/03 04:41:42;;;;;;;8.20;3.97;;;15.90;95.00;;;;;;5011447;28;20022;-62
2021/10/03 04:44:08;;;;;;;8.15;3.60;;;15.90;95.00;;;;;;5012094;28;20507;-62
2021/10/03 04:46:34;;;;;;;7.90;4.07;;;15.90;95.20;;;;;;5028682;28;20028;-62
2021/10/03 04:48:59;;;;;;;6.60;3.85;;;15.90;95.20;;;;;;5029263;28;20480;-62
2021/10/03 04:51:25;;;;;;;7.18;4.25;;;15.90;95.30;;;;;;5030991;28;20021;-62
2021/10/03 04:53:50;;;;;;;6.70;3.80;;;15.90;95.20;;;;;;5031067;28;20029;-62
2021/10/03 04:56:16;;;;;;;8.55;4.22;;;15.90;95.50;;;;;;5026113;28;20398;-62
2021/10/03 04:58:41;;;;;;;6.05;3.60;;;15.90;95.50;;;;;;5025183;28;20118;-62
2021/10/03 05:01:09;;;;;;;6.82;3.88;;;15.90;95.70;;;;;;5030691;28;20052;-62
2021/10/03 05:03:35;;;;;;;6.50;3.85;;;15.90;95.60;;;;;;5030926;28;20388;-62
2021/10/03 05:06:02;;;;;;;7.68;4.50;;;15.90;95.90;;;;;;5031001;28;20072;-62
2021/10/03 05:08:27;;;;;;;9.10;4.80;;;15.90;95.70;;;;;;5029161;28;20056;-62
2021/10/03 05:10:53;;;;;;;8.57;4.45;;;15.90;95.80;;;;;;5032954;28;20504;-62
2021/10/03 05:13:18;;;;;;;6.55;4.00;;;15.90;95.90;;;;;;5034718;28;20040;-62
2021/10/03 05:15:44;;;;;;;6.80;4.10;;;15.90;95.90;;;;;;5034833;28;20112;-62
2021/10/03 05:18:10;;;;;;;9.65;4.43;;;15.90;96.00;;;;;;5034554;28;20065;-63
2021/10/03 05:20:35;;;;;;;7.38;4.63;;;15.90;96.00;;;;;;5034669;28;20029;-62
2021/10/03 05:23:01;;;;;;;8.50;4.40;;;15.90;96.00;;;;;;5034731;28;20096;-62
2021/10/03 05:25:27;;;;;;;7.05;4.45;;;15.90;95.90;;;;;;5034649;28;20037;-62
2021/10/03 05:27:53;;;;;;;7.40;4.40;;;15.90;96.00;;;;;;5034476;28;20416;-62
2021/10/03 05:30:18;;;;;;;7.25;4.22;;;15.90;96.00;;;;;;5034368;28;20040;-62
2021/10/03 05:32:45;;;;;;;8.15;4.70;;;15.90;96.00;;;;;;5034400;28;20034;-62
2021/10/03 05:35:11;;;;;;;8.35;4.50;;;15.90;96.00;;;;;;5034472;28;20590;-63
2021/10/03 05:37:37;;;;;;;7.97;4.88;;;15.90;96.10;;;;;;5034404;28;20037;-62
2021/10/03 05:40:05;;;;;;;8.13;4.90;;;15.90;96.20;;;;;;5033973;28;20025;-63
2021/10/03 05:42:30;;;;;;;7.30;4.40;;;15.90;96.00;;;;;;5034426;28;20021;-63
2021/10/03 05:44:56;;;;;;;8.27;4.78;;;15.90;96.10;;;;;;5032983;28;20032;-63
2021/10/03 05:47:21;;;;;;;6.97;4.55;;;15.90;96.10;;;;;;5034072;28;20033;-63
2021/10/03 05:49:47;;;;;;;8.90;5.00;;;15.90;95.90;;;;;;5033977;28;20061;-63
2021/10/03 05:52:12;;;;;;;7.85;4.70;;;15.90;96.00;;;;;;5034322;28;20100;-63
2021/10/03 05:54:38;;;;;;;8.48;5.63;;;15.90;96.00;;;;;;5032483;28;20511;-62
2021/10/03 05:57:03;;;;;;;8.10;5.03;;;15.90;95.90;;;;;;5032642;28;20029;-63
2021/10/03 05:59:29;;;;;;;8.07;5.28;;;15.90;96.00;;;;;;5031223;28;20022;-62
2021/10/03 06:01:55;;;;;;;9.88;5.95;;;15.90;96.00;;;;;;5032581;28;20022;-63
2021/10/03 06:04:20;;;;;;;8.93;5.15;;;15.90;96.00;;;;;;5032607;28;20057;-63
2021/10/03 06:06:46;;;;;;;8.60;5.45;;;15.90;95.90;;;;;;5032088;28;20109;-64
2021/10/03 06:09:11;;;;;;;8.98;5.68;;;15.90;96.00;;;;;;5031719;28;20044;-62
2021/10/03 06:11:37;;;;;;;8.73;5.65;;;15.90;96.00;;;;;;5032744;28;20124;-64
2021/10/03 06:14:03;;;;;;;8.55;5.68;;;15.90;96.00;;;;;;5027125;28;20027;-62
2021/10/03 06:16:29;;;;;;;10.02;6.30;;;15.90;96.10;;;;;;5027610;28;20026;-63
2021/10/03 06:18:54;;;;;;;17.17;5.93;;;15.90;96.00;;;;;;5024521;28;20057;-62
2021/10/03 06:21:20;;;;;;;9.60;5.80;;;15.90;96.00;;;;;;5017379;28;20448;-63
2021/10/03 06:23:46;;;;;;;9.35;6.18;;;15.90;96.10;;;;;;5005047;28;20025;-62
2021/10/03 06:26:13;;;;;;;9.43;6.38;;;15.90;96.20;;;;;;5005938;28;20033;-63
2021/10/03 06:28:38;;;;;;;11.50;6.10;;;15.90;96.20;;;;;;5003673;28;20022;-63
2021/10/03 06:31:04;;;;;;;8.57;5.85;;;15.90;96.10;;;;;;5006335;28;20065;-63
2021/10/03 06:33:31;;;;;;;10.02;6.30;;;15.90;96.20;;;;;;5013421;28;20068;-62
2021/10/03 06:35:57;;;;;;;11.10;6.18;;;15.90;96.20;;;;;;5011259;28;20076;-61
2021/10/03 06:38:23;;;;;;;12.60;6.07;;;15.90;96.10;;;;;;5006649;28;20110;-63
2021/10/03 06:40:48;;;;;;;9.15;5.80;;;15.90;96.20;;;;;;5020212;28;20060;-63
2021/10/03 06:43:14;;;;;;;9.95;5.82;;;15.90;96.30;;;;;;5025459;28;20136;-61
2021/10/03 06:45:39;;;;;;;8.57;5.63;;;15.90;96.20;;;;;;5026520;28;20064;-63
2021/10/03 06:48:09;;;;;;;10.38;6.03;;;15.90;96.20;;;;;;5027012;28;20037;-63
2021/10/03 06:50:34;;;;;;;12.20;6.40;;;16.00;96.30;;;;;;5026907;28;20071;-63
2021/10/03 06:53:00;;;;;;;9.35;6.30;;;15.90;96.30;;;;;;5013609;28;20026;-62
2021/10/03 06:55:25;;;;;;;8.88;5.80;;;15.90;96.20;;;;;;5005702;28;20038;-63
2021/10/03 06:57:51;;;;;;;10.80;6.35;;;16.00;96.10;;;;;;5004921;28;20034;-62
2021/10/03 07:00:16;;;;;;;13.30;6.13;;;16.00;96.30;;;;;;5007005;28;20061;-64
2021/10/03 07:02:43;;;;;;;10.57;6.13;;;16.00;96.20;;;;;;5004288;28;20036;-63
2021/10/03 07:05:09;;;;;;;9.93;5.75;;;15.90;96.20;;;;;;5022483;28;20022;-63
2021/10/03 07:07:35;;;;;;;10.23;5.97;;;16.00;96.20;;;;;;5026576;28;20087;-63
2021/10/03 07:10:00;;;;;;;9.73;6.15;;;16.00;96.20;;;;;;5012199;28;20519;-63
2021/10/03 07:12:26;;;;;;;10.02;5.65;;;16.00;96.20;;;;;;5004778;28;20330;-63
2021/10/03 07:14:51;;;;;;;16.60;6.40;;;16.00;96.10;;;;;;5004827;28;20040;-63
2021/10/03 07:17:17;;;;;;;12.00;6.35;;;16.00;95.90;;;;;;5005732;28;20084;-64
2021/10/03 07:19:42;;;;;;;9.68;6.03;;;16.00;95.90;;;;;;5005904;28;20130;-63
2021/10/03 07:22:08;;;;;;;11.25;6.15;;;16.00;96.00;;;;;;5006909;28;20053;-63
2021/10/03 07:24:34;;;;;;;9.40;6.07;;;16.00;96.00;;;;;;5019809;28;20048;-63
2021/10/03 07:27:01;;;;;;;12.48;6.45;;;16.00;96.00;;;;;;5025620;28;20029;-63
2021/10/03 07:29:27;;;;;;;10.02;5.75;;;16.00;96.00;;;;;;5024137;28;20021;-63
2021/10/03 07:31:52;;;;;;;9.63;6.03;;;16.00;96.00;;;;;;5024864;28;20088;-65
2021/10/03 07:34:18;;;;;;;10.20;5.43;;;16.00;95.90;;;;;;5023980;28;20034;-63
2021/10/03 07:36:43;;;;;;;9.15;5.75;;;16.00;95.90;;;;;;5026281;28;20432;-63
2021/10/03 07:39:09;;;;;;;9.80;5.85;;;16.00;96.00;;;;;;5020470;28;20026;-64
2021/10/03 07:41:35;;;;;;;9.07;6.00;;;16.00;96.00;;;;;;5019139;28;20022;-63
2021/10/03 07:44:00;;;;;;;9.18;6.25;;;16.00;96.00;;;;;;5026481;28;20451;-63
2021/10/03 07:46:26;;;;;;;9.35;5.45;;;16.00;95.80;;;;;;5014280;28;20033;-63
2021/10/03 07:48:52;;;;;;;9.35;5.38;;;16.00;96.00;;;;;;5005461;28;20252;-63
2021/10/03 07:51:18;;;;;;;9.13;5.75;;;16.00;95.90;;;;;;5006786;28;20109;-63
2021/10/03 07:53:44;;;;;;;8.75;5.88;;;16.00;96.00;;;;;;5006603;28;20556;-63
2021/10/03 07:56:11;;;;;;;9.02;5.53;;;16.00;96.00;;;;;;5006444;28;20570;-63
2021/10/03 07:58:36;;;;;;;10.57;6.40;;;16.00;96.00;;;;;;5017656;28;20041;-64
2021/10/03 08:01:03;;;;;;;9.20;5.68;;;16.00;96.00;;;;;;5024977;28;20026;-64
2021/10/03 08:03:29;;;;;;;9.55;6.25;;;16.00;95.80;;;;;;5024682;28;20029;-67
2021/10/03 08:05:54;;;;;;;12.95;5.75;;;16.00;95.90;;;;;;5026132;28;20026;-64
2021/10/03 08:08:21;;;;;;;10.70;6.05;;;16.00;95.90;;;;;;5024022;28;20043;-63
2021/10/03 08:10:47;;;;;;;8.65;5.70;;;16.00;95.70;;;;;;5024854;28;20063;-64
2021/10/03 08:13:13;;;;;;;8.48;5.72;;;16.00;95.90;;;;;;5025804;28;20854;-63
2021/10/03 08:15:39;;;;;;;9.75;6.25;;;16.00;95.90;;;;;;5025982;28;20076;-63
2021/10/03 08:18:05;;;;;;;12.18;5.95;;;16.00;95.70;;;;;;5025480;28;20025;-63
2021/10/03 08:20:32;;;;;;;9.23;5.78;;;16.00;95.90;;;;;;5025754;28;20176;-64
2021/10/03 08:22:58;;;;;;;9.70;5.85;;;16.00;96.00;;;;;;5025554;28;20022;-63
2021/10/03 08:25:24;;;;;;;10.73;6.15;;;16.00;95.80;;;;;;5026029;28;20542;-63
2021/10/03 08:27:50;;;;;;;8.90;6.22;;;16.10;95.90;;;;;;5025416;28;20104;-63
2021/10/03 08:30:15;;;;;;;10.10;5.50;;;16.00;95.90;;;;;;5025589;28;20568;-63
2021/10/03 08:32:41;;;;;;;9.10;5.90;;;16.00;95.90;;;;;;5025484;28;20041;-65
2021/10/03 08:35:09;;;;;;;9.48;5.60;;;16.00;95.80;;;;;;5025575;28;20064;-63
2021/10/03 08:37:36;;;;;;;9.95;5.88;;;16.00;95.90;;;;;;5024069;28;20037;-63
2021/10/03 08:40:04;;;;;;;9.07;6.00;;;16.00;96.00;;;;;;5019287;28;20037;-63
2021/10/03 08:42:29;;;;;;;8.90;6.22;;;16.00;95.90;;;;;;5018798;28;20060;-63
2021/10/03 08:44:55;;;;;;;9.60;5.68;;;16.00;95.90;;;;;;5019364;28;20839;-63
2021/10/03 08:47:24;;;;;;;8.73;5.88;;;16.10;96.00;;;;;;5033405;28;20405;-63
2021/10/03 08:49:54;;;;;;;9.40;5.50;;;16.10;96.00;;;;;;5030571;28;20026;-63
2021/10/03 08:52:20;;;;;;;8.38;5.78;;;16.10;96.10;;;;;;5022531;28;20022;-63
2021/10/03 08:54:46;;;;;;;8.77;5.50;;;16.10;95.90;;;;;;5032056;28;20033;-63
2021/10/03 08:57:11;;;;;;;8.40;5.65;;;16.10;95.80;;;;;;5032825;28;20033;-63
2021/10/03 08:59:37;;;;;;;9.25;5.80;;;16.10;95.80;;;;;;5024458;28;20025;-63
2021/10/03 09:02:03;;;;;;;9.00;5.75;;;16.10;95.90;;;;;;5019322;28;20248;-64
2021/10/03 09:04:39;;;;;;;8.70;5.38;;;16.10;96.00;;;;;;5025562;28;20374;-64
2021/10/03 09:07:05;;;;;;;9.20;5.60;;;16.10;96.00;;;;;;5032862;28;20148;-62
2021/10/03 09:09:50;;;;;;;9.63;5.88;;;16.10;95.90;;;;;;5018917;28;20120;-63
2021/10/03 09:12:25;;;;;;;8.70;5.20;;;16.10;96.00;;;;;;5010517;28;20030;-64
2021/10/03 09:14:51;;;;;;;8.02;5.28;;;16.10;96.30;;;;;;5012458;28;20142;-65
2021/10/03 09:17:18;;;;;;;8.35;4.85;;;16.10;96.30;;;;;;5029749;28;20061;-65
2021/10/03 09:20:08;;;;;;;9.68;5.20;;;16.10;96.20;;;;;;5029631;28;20025;-64
2021/10/03 09:23:12;;;;;;;8.70;5.40;;;16.10;96.30;;;;;;5027382;28;20115;-63
2021/10/03 09:25:44;;;;;;;8.60;5.28;;;16.10;96.30;;;;;;5020769;28;20029;-63
2021/10/03 09:28:14;;;;;;;8.00;4.97;;;16.10;96.40;;;;;;5021990;28;20018;-62
2021/10/03 09:30:52;;;;;;;9.32;5.32;;;16.10;96.40;;;;;;5010183;28;20121;-64
2021/10/03 09:33:17;;;;;;;8.52;5.40;;;16.10;96.40;;;;;;5010163;28;20030;-63
2021/10/03 09:36:01;;;;;;;9.20;5.22;;;16.10;96.40;;;;;;5011320;28;20029;-64
2021/10/03 09:38:40;;;;;;;8.30;5.20;;;16.10;96.60;;;;;;5012509;28;20034;-63
2021/10/03 09:41:07;;;;;;;9.35;5.43;;;16.10;96.70;;;;;;5014811;28;20022;-63
2021/10/03 09:43:48;;;;;;;8.23;5.13;;;16.20;96.50;;;;;;5013478;28;20033;-63
2021/10/03 09:46:34;;;;;;;9.57;5.38;;;16.10;96.60;;;;;;5020327;28;20028;-64
2021/10/03 09:49:02;;;;;;;8.85;5.25;;;16.10;96.80;;;;;;5022107;28;20063;-64
2021/10/03 09:51:29;;;;;;;9.15;5.43;;;16.10;96.80;;;;;;5022589;28;20014;-64
2021/10/03 09:53:55;;;;;;;8.40;5.25;;;16.10;96.90;;;;;;5018388;28;20481;-64
2021/10/03 09:56:20;;;;;;;7.95;5.43;;;16.10;97.10;;;;;;5014313;28;20026;-63
2021/10/03 09:58:47;;;;;;;9.35;5.65;;;16.10;97.30;;;;;;5014120;28;20542;-63
2021/10/03 10:01:13;;;;;;;8.65;5.60;;;16.10;97.20;;;;;;5014968;28;20026;-62
2021/10/03 10:03:40;;;;;;;11.70;5.35;;;16.10;97.20;;;;;;5016208;28;20025;-61
2021/10/03 10:06:06;;;;;;;10.38;5.63;;;16.10;97.10;;;;;;5014732;28;20034;-61
2021/10/03 10:08:33;;;;;;;9.63;5.20;;;16.20;96.80;;;;;;5014584;28;20036;-62
2021/10/03 10:11:10;;;;;;;28.92;6.22;;;16.20;96.90;;;;;;5014623;28;20018;-62
2021/10/03 10:13:38;;;;;;;15.05;5.68;;;16.20;96.60;;;;;;5015001;28;20018;-62
2021/10/03 10:16:31;;;;;;;16.42;6.10;;;16.20;96.30;;;;;;5014424;28;20057;-61
2021/10/03 10:19:32;;;;;;;20.10;6.05;;;16.20;96.70;;;;;;5013116;28;20099;-62
2021/10/03 10:22:18;;;;;;;18.85;5.90;;;16.20;96.50;;;;;;5011521;28;20492;-62
2021/10/03 10:24:46;;;;;;;41.28;7.07;;;16.20;96.70;;;;;;5014509;28;20035;-62
2021/10/03 10:27:21;;;;;;;39.97;7.20;;;16.20;96.70;;;;;;5014275;28;20451;-62
2021/10/03 10:29:54;;;;;;;27.75;6.80;;;16.30;96.80;;;;;;5014077;28;20026;-62
2021/10/03 10:32:24;;;;;;;23.67;6.18;;;16.30;96.70;;;;;;5014205;28;20106;-62
2021/10/03 10:35:07;;;;;;;26.23;6.05;;;16.30;96.70;;;;;;5014197;28;20057;-62
2021/10/03 10:37:51;;;;;;;16.50;5.95;;;16.30;96.90;;;;;;5015081;28;20556;-61
2021/10/03 10:40:23;;;;;;;24.00;6.35;;;16.20;96.70;;;;;;5024455;28;20022;-61
2021/10/03 10:42:51;;;;;;;18.10;5.80;;;16.20;96.90;;;;;;5014136;28;20036;-62
2021/10/03 10:45:29;;;;;;;16.30;6.32;;;16.20;97.40;;;;;;5012313;28;20041;-63
2021/10/03 10:48:07;;;;;;;17.20;5.75;;;16.20;97.40;;;;;;5013889;28;20104;-63
2021/10/03 10:50:42;;;;;;;20.92;6.35;;;16.20;97.60;;;;;;5012120;28;20072;-62
2021/10/03 10:53:39;;;;;;;17.10;5.68;;;16.20;97.60;;;;;;5012557;28;20030;-62
2021/10/03 10:56:06;;;;;;;16.50;6.13;;;16.20;97.70;;;;;;5001709;28;20038;-62
2021/10/03 10:58:51;;;;;;;13.18;5.70;;;16.20;97.60;;;;;;5013517;28;20113;-61
2021/10/03 11:01:40;;;;;;;13.13;5.75;;;16.20;97.70;;;;;;5003211;28;20088;-62
2021/10/03 11:04:06;;;;;;;14.55;5.63;;;16.20;97.60;;;;;;5013779;28;20240;-62
2021/10/03 11:06:31;;;;;;;13.82;6.07;;;16.20;97.70;;;;;;5012691;28;20121;-62
2021/10/03 11:08:59;;;;;;;17.00;6.10;;;16.20;97.40;;;;;;5013083;28;20021;-62
2021/10/03 11:11:28;;;;;;;12.93;5.38;;;16.20;97.70;;;;;;5013431;28;20529;-61
2021/10/03 11:13:56;;;;;;;15.40;5.63;;;16.20;97.80;;;;;;5013360;28;20026;-62
2021/10/03 11:16:46;;;;;;;13.15;6.30;;;16.20;97.60;;;;;;5013570;28;20088;-62
2021/10/03 11:19:14;;;;;;;13.70;6.37;;;16.20;97.80;;;;;;5013155;28;20068;-62
2021/10/03 11:21:47;;;;;;;13.70;5.70;;;16.20;98.00;;;;;;5012276;28;20456;-62
2021/10/03 11:24:22;;;;;;;16.25;6.00;;;16.20;98.00;;;;;;5013182;28;20032;-62
2021/10/03 11:26:53;;;;;;;17.52;5.38;;;16.20;98.20;;;;;;5012476;28;20072;-61
2021/10/03 11:29:21;;;;;;;14.20;5.97;;;16.20;98.10;;;;;;5012125;28;20108;-62
2021/10/03 11:31:55;;;;;;;10.95;5.63;;;16.20;98.10;;;;;;5020317;28;20041;-62
2021/10/03 11:34:25;;;;;;;14.10;5.43;;;16.20;98.00;;;;;;5022537;28;20021;-62
2021/10/03 11:36:51;;;;;;;17.08;5.90;;;16.20;98.00;;;;;;5020299;28;20807;-63
2021/10/03 11:39:17;;;;;;;14.13;5.57;;;16.20;97.80;;;;;;5021130;28;20013;-62
2021/10/03 11:41:50;;;;;;;14.32;5.53;;;16.20;97.70;;;;;;5025679;28;20018;-62
2021/10/03 11:44:22;;;;;;;13.25;5.18;;;16.20;97.90;;;;;;5030561;28;20056;-63
2021/10/03 11:47:01;;;;;;;11.68;5.43;;;16.20;98.00;;;;;;5016147;28;20503;-62
2021/10/03 11:49:29;;;;;;;12.52;4.97;;;16.20;97.70;;;;;;5023175;28;20478;-63
2021/10/03 11:51:57;;;;;;;11.13;5.03;;;16.30;97.30;;;;;;5031813;28;20021;-63
2021/10/03 11:54:42;;;;;;;8.73;4.50;;;16.30;98.10;;;;;;5021436;28;20398;-64
2021/10/03 11:57:13;;;;;;;11.43;5.07;;;16.30;98.00;;;;;;5011059;28;20026;-64
2021/10/03 11:59:39;;;;;;;13.63;5.47;;;16.30;97.80;;;;;;5009767;28;20473;-63
2021/10/03 12:02:19;;;;;;;9.07;5.00;;;16.30;97.50;;;;;;5009743;28;20037;-62
2021/10/03 12:04:59;;;;;;;10.47;4.60;;;16.30;97.70;;;;;;5018316;28;20025;-63
2021/10/03 12:07:25;;;;;;;9.75;4.63;;;16.30;97.60;;;;;;5020093;28;20664;-62
2021/10/03 12:10:05;;;;;;;9.90;5.20;;;16.30;97.30;;;;;;5020899;28;20435;-63
2021/10/03 12:12:53;;;;;;;9.07;4.50;;;16.30;97.30;;;;;;5021057;28;20477;-63
2021/10/03 12:15:48;;;;;;;7.80;4.40;;;16.30;96.90;;;;;;5022013;28;20102;-63
2021/10/03 12:18:29;;;;;;;9.40;4.80;;;16.30;97.50;;;;;;5011644;28;20053;-63
2021/10/03 12:21:06;;;;;;;9.00;4.78;;;16.30;96.90;;;;;;5030856;28;20080;-63
2021/10/03 12:23:52;;;;;;;8.65;4.68;;;16.30;97.30;;;;;;5017769;28;20053;-62
2021/10/03 12:26:27;;;;;;;7.35;4.75;;;16.30;97.30;;;;;;5011003;28;20040;-63
2021/10/03 12:28:55;;;;;;;8.63;4.75;;;16.30;97.10;;;;;;5023299;28;20050;-63
2021/10/03 12:31:39;;;;;;;7.20;4.47;;;16.30;97.30;;;;;;5031956;28;20031;-63
2021/10/03 12:34:06;;;;;;;9.80;4.65;;;16.30;97.20;;;;;;5031072;28;20033;-63
2021/10/03 12:36:33;;;;;;;7.30;4.60;;;16.30;97.20;;;;;;5029855;28;20021;-63
2021/10/03 12:38:58;;;;;;;8.63;5.00;;;16.30;97.10;;;;;;5029709;28;20069;-62
2021/10/03 12:41:24;;;;;;;7.85;5.03;;;16.30;97.20;;;;;;5030168;28;20155;-62
2021/10/03 12:43:51;;;;;;;8.95;4.50;;;16.30;97.00;;;;;;5011411;28;20029;-62
2021/10/03 12:46:17;;;;;;;9.50;4.70;;;16.30;96.70;;;;;;5012029;28;20059;-62
2021/10/03 12:48:43;;;;;;;11.30;5.05;;;16.40;96.70;;;;;;5010371;28;20022;-63
2021/10/03 12:51:09;;;;;;;10.90;4.85;;;16.40;96.90;;;;;;5011957;28;20028;-62